createdAt,value
2019-03-08T00:01:03.940Z,0
2019-03-08T00:02:13.692Z,0
2019-03-08T00:03:23.689Z,0
2019-03-08T00:04:33.414Z,0
2019-03-08T00:05:43.387Z,0
2019-03-08T00:06:52.857Z,0
2019-03-08T00:08:02.850Z,0
2019-03-08T00:09:13.927Z,0
2019-03-08T00:10:23.402Z,0
2019-03-08T00:11:33.387Z,0
2019-03-08T00:12:42.865Z,0
2019-03-08T00:13:52.611Z,0
2019-03-08T00:15:02.742Z,0
2019-03-08T00:16:12.236Z,0
2019-03-08T00:17:21.710Z,0
2019-03-08T00:18:31.456Z,0
2019-03-08T00:19:41.443Z,0
2019-03-08T00:20:51.172Z,0
2019-03-08T00:22:01.159Z,0
2019-03-08T00:23:10.633Z,0
2019-03-08T00:24:20.371Z,0
2019-03-08T00:25:29.869Z,0
2019-03-08T00:26:39.601Z,0
2019-03-08T00:27:49.084Z,0
2019-03-08T00:29:00.030Z,0
2019-03-08T00:30:09.751Z,0
2019-03-08T00:31:19.242Z,0
2019-03-08T00:32:29.240Z,0
2019-03-08T00:33:39.455Z,0
2019-03-08T00:34:49.931Z,0
2019-03-08T00:36:00.286Z,0
2019-03-08T00:37:11.719Z,0
2019-03-08T00:38:22.033Z,0
2019-03-08T00:39:31.976Z,0
2019-03-08T00:40:41.709Z,0
2019-03-08T00:41:51.117Z,0
2019-03-08T00:43:01.224Z,0
2019-03-08T00:44:11.212Z,0
2019-03-08T00:45:20.936Z,0
2019-03-08T00:46:30.213Z,0
2019-03-08T00:47:39.686Z,0
2019-03-08T00:48:51.295Z,0
2019-03-08T00:50:01.300Z,0
2019-03-08T00:51:11.039Z,0
2019-03-08T00:52:21.025Z,0
2019-03-08T00:53:31.008Z,0
2019-03-08T00:54:40.484Z,0
2019-03-08T00:55:49.979Z,0
2019-03-08T00:56:59.704Z,0
2019-03-08T00:58:09.200Z,0
2019-03-08T00:59:18.915Z,0
2019-03-08T01:00:28.648Z,0
2019-03-08T01:01:38.626Z,0
2019-03-08T01:02:48.354Z,0
2019-03-08T01:03:58.078Z,0
2019-03-08T01:05:08.065Z,0
2019-03-08T01:06:17.554Z,0
2019-03-08T01:07:27.047Z,0
2019-03-08T01:08:37.013Z,0
2019-03-08T01:09:46.987Z,0
2019-03-08T01:10:56.711Z,0
2019-03-08T01:12:06.207Z,0
2019-03-08T01:13:16.195Z,0
2019-03-08T01:14:25.944Z,0
2019-03-08T01:15:35.928Z,0
2019-03-08T01:16:45.667Z,0
2019-03-08T01:17:55.425Z,0
2019-03-08T01:19:05.408Z,0
2019-03-08T01:20:14.931Z,0
2019-03-08T01:21:24.908Z,0
2019-03-08T01:22:34.632Z,0
2019-03-08T01:23:44.399Z,0
2019-03-08T01:24:53.879Z,0
2019-03-08T01:26:03.114Z,0
2019-03-08T01:27:13.133Z,0
2019-03-08T01:28:23.143Z,0
2019-03-08T01:29:32.393Z,0
2019-03-08T01:30:41.903Z,0
2019-03-08T01:31:53.376Z,0
2019-03-08T01:33:03.560Z,0
2019-03-08T01:34:13.983Z,0
2019-03-08T01:35:24.716Z,0
2019-03-08T01:36:35.090Z,0
2019-03-08T01:37:45.930Z,0
2019-03-08T01:38:56.062Z,0
2019-03-08T01:40:05.710Z,0
2019-03-08T01:41:15.609Z,0
2019-03-08T01:42:25.592Z,0
2019-03-08T01:43:35.309Z,0
2019-03-08T01:44:44.532Z,0
2019-03-08T01:45:54.563Z,0
2019-03-08T01:47:04.282Z,0
2019-03-08T01:48:14.021Z,0
2019-03-08T01:49:23.755Z,0
2019-03-08T01:50:32.756Z,0
2019-03-08T01:51:42.475Z,0
2019-03-08T01:52:52.468Z,0
2019-03-08T01:54:02.195Z,0
2019-03-08T01:55:11.936Z,0
2019-03-08T01:56:21.680Z,0
2019-03-08T01:57:31.675Z,0
2019-03-08T01:58:41.160Z,0
2019-03-08T01:59:50.651Z,0
2019-03-08T02:01:00.371Z,0
2019-03-08T02:02:10.526Z,0
2019-03-08T02:03:22.070Z,0
2019-03-08T02:04:31.812Z,0
2019-03-08T02:05:41.801Z,0
2019-03-08T02:06:51.536Z,0
2019-03-08T02:08:01.499Z,0
2019-03-08T02:09:11.474Z,0
2019-03-08T02:10:21.210Z,0
2019-03-08T02:11:30.930Z,0
2019-03-08T02:12:42.067Z,0
2019-03-08T02:13:51.951Z,0
2019-03-08T02:15:01.681Z,0
2019-03-08T02:16:11.419Z,0
2019-03-08T02:17:21.463Z,0
2019-03-08T02:18:31.183Z,0
2019-03-08T02:19:41.161Z,0
2019-03-08T02:20:52.238Z,0
2019-03-08T02:22:02.096Z,0
2019-03-08T02:23:12.088Z,0
2019-03-08T02:24:21.830Z,0
2019-03-08T02:25:31.305Z,0
2019-03-08T02:26:40.815Z,0
2019-03-08T02:27:50.310Z,0
2019-03-08T02:29:00.049Z,0
2019-03-08T02:30:10.191Z,0
2019-03-08T02:31:20.250Z,0
2019-03-08T02:32:30.373Z,0
2019-03-08T02:33:39.866Z,0
2019-03-08T02:34:50.231Z,0
2019-03-08T02:36:00.799Z,0
2019-03-08T02:37:11.200Z,0
2019-03-08T02:38:21.350Z,0
2019-03-08T02:39:31.484Z,0
2019-03-08T02:40:41.076Z,0
2019-03-08T02:41:50.814Z,0
2019-03-08T02:43:00.552Z,0
2019-03-08T02:44:10.286Z,0
2019-03-08T02:45:19.754Z,0
2019-03-08T02:46:29.731Z,0
2019-03-08T02:47:39.716Z,0
2019-03-08T02:48:49.444Z,0
2019-03-08T02:49:58.935Z,0
2019-03-08T02:51:08.913Z,0
2019-03-08T02:52:18.144Z,0
2019-03-08T02:53:27.870Z,0
2019-03-08T02:54:39.309Z,0
2019-03-08T02:55:49.030Z,0
2019-03-08T02:56:58.527Z,0
2019-03-08T02:58:08.272Z,0
2019-03-08T02:59:18.003Z,0
2019-03-08T03:00:27.784Z,0
2019-03-08T03:01:37.781Z,0
2019-03-08T03:02:47.769Z,0
2019-03-08T03:03:57.739Z,0
2019-03-08T03:05:07.325Z,0
2019-03-08T03:06:17.311Z,0
2019-03-08T03:07:26.537Z,0
2019-03-08T03:08:36.517Z,0
2019-03-08T03:09:46.247Z,0
2019-03-08T03:10:55.474Z,0
2019-03-08T03:12:05.450Z,0
2019-03-08T03:13:15.436Z,0
2019-03-08T03:14:25.406Z,0
2019-03-08T03:15:34.900Z,0
2019-03-08T03:16:44.378Z,0
2019-03-08T03:17:54.089Z,0
2019-03-08T03:19:04.087Z,0
2019-03-08T03:20:13.579Z,0
2019-03-08T03:21:23.569Z,0
2019-03-08T03:22:33.032Z,0
2019-03-08T03:23:42.503Z,0
2019-03-08T03:24:51.989Z,0
2019-03-08T03:26:01.963Z,0
2019-03-08T03:27:11.686Z,0
2019-03-08T03:28:21.694Z,0
2019-03-08T03:29:31.657Z,0
2019-03-08T03:30:41.729Z,0
2019-03-08T03:31:51.444Z,0
2019-03-08T03:33:02.313Z,0
2019-03-08T03:34:12.551Z,0
2019-03-08T03:35:23.040Z,0
2019-03-08T03:36:33.209Z,0
2019-03-08T03:37:43.551Z,0
2019-03-08T03:38:52.952Z,0
2019-03-08T03:40:02.740Z,0
2019-03-08T03:41:12.720Z,0
2019-03-08T03:42:22.449Z,0
2019-03-08T03:43:32.156Z,0
2019-03-08T03:44:41.905Z,0
2019-03-08T03:45:51.891Z,0
2019-03-08T03:47:01.910Z,0
2019-03-08T03:48:11.398Z,0
2019-03-08T03:49:20.610Z,0
2019-03-08T03:50:30.342Z,0
2019-03-08T03:51:39.810Z,0
2019-03-08T03:52:49.819Z,0
2019-03-08T03:53:59.819Z,0
2019-03-08T03:55:09.848Z,0
2019-03-08T03:56:19.567Z,0
2019-03-08T03:57:29.291Z,0
2019-03-08T03:58:39.026Z,0
2019-03-08T03:59:48.502Z,0
2019-03-08T04:00:57.990Z,0
2019-03-08T04:02:08.004Z,0
2019-03-08T04:03:17.731Z,0
2019-03-08T04:04:27.471Z,0
2019-03-08T04:05:37.457Z,0
2019-03-08T04:06:47.424Z,0
2019-03-08T04:07:57.193Z,0
2019-03-08T04:09:06.912Z,0
2019-03-08T04:10:16.135Z,0
2019-03-08T04:11:26.179Z,0
2019-03-08T04:12:35.920Z,0
2019-03-08T04:13:45.902Z,0
2019-03-08T04:14:55.375Z,0
2019-03-08T04:16:05.109Z,0
2019-03-08T04:17:14.830Z,0
2019-03-08T04:18:24.561Z,0
2019-03-08T04:19:34.060Z,0
2019-03-08T04:20:43.321Z,0
2019-03-08T04:21:53.058Z,0
2019-03-08T04:23:02.794Z,0
2019-03-08T04:24:12.533Z,0
2019-03-08T04:25:22.017Z,0
2019-03-08T04:26:31.526Z,0
2019-03-08T04:27:41.763Z,0
2019-03-08T04:28:51.858Z,0
2019-03-08T04:30:03.814Z,0
2019-03-08T04:31:13.294Z,0
2019-03-08T04:32:23.059Z,0
2019-03-08T04:33:33.353Z,0
2019-03-08T04:34:43.310Z,0
2019-03-08T04:35:53.659Z,0
2019-03-08T04:37:03.976Z,0
2019-03-08T04:38:14.354Z,0
2019-03-08T04:39:24.162Z,0
2019-03-08T04:40:34.292Z,0
2019-03-08T04:41:44.527Z,0
2019-03-08T04:42:53.987Z,0
2019-03-08T04:44:03.528Z,0
2019-03-08T04:45:13.262Z,0
2019-03-08T04:46:22.995Z,0
2019-03-08T04:47:32.730Z,0
2019-03-08T04:48:42.455Z,0
2019-03-08T04:49:51.689Z,0
2019-03-08T04:51:01.167Z,0
2019-03-08T04:52:10.907Z,0
2019-03-08T04:53:20.881Z,0
2019-03-08T04:54:30.609Z,0
2019-03-08T04:55:40.334Z,0
2019-03-08T04:56:49.845Z,0
2019-03-08T04:57:59.326Z,0
2019-03-08T04:59:09.078Z,0
2019-03-08T05:00:18.569Z,0
2019-03-08T05:01:28.293Z,0
2019-03-08T05:02:38.034Z,0
2019-03-08T05:03:47.767Z,0
2019-03-08T05:04:57.488Z,0
2019-03-08T05:06:08.081Z,0
2019-03-08T05:07:17.581Z,0
2019-03-08T05:08:26.804Z,0
2019-03-08T05:09:36.572Z,0
2019-03-08T05:10:46.579Z,0
2019-03-08T05:11:56.570Z,0
2019-03-08T05:13:06.278Z,0
2019-03-08T05:14:16.013Z,0
2019-03-08T05:15:25.994Z,0
2019-03-08T05:16:35.981Z,0
2019-03-08T05:17:45.760Z,0
2019-03-08T05:18:55.494Z,0
2019-03-08T05:20:05.214Z,0
2019-03-08T05:21:14.697Z,0
2019-03-08T05:22:25.651Z,0
2019-03-08T05:23:35.390Z,0
2019-03-08T05:25:57.215Z,0
2019-03-08T05:27:06.943Z,0
2019-03-08T05:28:16.924Z,0
2019-03-08T05:29:28.850Z,0
2019-03-08T05:30:38.840Z,0
2019-03-08T05:31:48.829Z,12
2019-03-08T05:32:58.304Z,16
2019-03-08T05:34:07.806Z,16
2019-03-08T05:35:18.092Z,16
2019-03-08T05:36:28.101Z,16
2019-03-08T05:37:38.314Z,16
2019-03-08T05:38:50.006Z,16
2019-03-08T05:40:00.392Z,16
2019-03-08T05:41:10.519Z,16
2019-03-08T05:42:20.924Z,16
2019-03-08T05:43:31.007Z,16
2019-03-08T05:44:40.378Z,16
2019-03-08T05:45:49.875Z,16
2019-03-08T05:46:59.601Z,12
2019-03-08T05:48:09.357Z,12
2019-03-08T05:49:19.089Z,16
2019-03-08T05:50:28.805Z,12
2019-03-08T05:51:38.064Z,12
2019-03-08T05:52:48.096Z,12
2019-03-08T05:53:57.828Z,0
2019-03-08T05:55:07.809Z,0
2019-03-08T05:56:17.567Z,0
2019-03-08T05:57:27.074Z,0
2019-03-08T05:58:36.838Z,0
2019-03-08T05:59:47.923Z,0
2019-03-08T06:00:57.403Z,0
2019-03-08T06:02:07.392Z,0
2019-03-08T06:03:17.110Z,0
2019-03-08T06:04:26.863Z,0
2019-03-08T06:05:36.105Z,0
2019-03-08T06:06:46.097Z,0
2019-03-08T06:07:55.632Z,0
2019-03-08T06:09:05.375Z,0
2019-03-08T06:10:15.106Z,0
2019-03-08T06:11:25.082Z,0
2019-03-08T06:12:34.809Z,0
2019-03-08T06:13:44.776Z,0
2019-03-08T06:14:54.512Z,0
2019-03-08T06:16:04.002Z,0
2019-03-08T06:17:13.757Z,0
2019-03-08T06:18:23.504Z,0
2019-03-08T06:19:33.232Z,64
2019-03-08T06:20:42.748Z,72
2019-03-08T06:21:52.489Z,56
2019-03-08T06:23:02.238Z,72
2019-03-08T06:24:11.982Z,64
2019-03-08T06:25:21.983Z,84
2019-03-08T06:26:31.475Z,108
2019-03-08T06:27:40.975Z,100
2019-03-08T06:28:50.711Z,104
2019-03-08T06:30:00.244Z,108
2019-03-08T06:31:10.130Z,120
2019-03-08T06:32:20.121Z,96
2019-03-08T06:33:30.096Z,116
2019-03-08T06:34:40.133Z,100
2019-03-08T06:35:50.126Z,84
2019-03-08T06:36:59.603Z,92
2019-03-08T06:38:09.345Z,64
2019-03-08T06:39:19.083Z,56
2019-03-08T06:40:28.855Z,88
2019-03-08T06:41:38.411Z,88
2019-03-08T06:42:47.912Z,72
2019-03-08T06:43:57.157Z,96
2019-03-08T06:45:07.133Z,84
2019-03-08T06:46:16.608Z,84
2019-03-08T06:47:26.076Z,48
2019-03-08T06:48:35.813Z,60
2019-03-08T06:49:45.560Z,68
2019-03-08T06:50:55.563Z,88
2019-03-08T06:52:05.837Z,80
2019-03-08T06:53:16.081Z,92
2019-03-08T06:54:26.253Z,112
2019-03-08T06:55:36.714Z,112
2019-03-08T06:56:46.660Z,156
2019-03-08T06:57:56.892Z,252
2019-03-08T06:59:07.313Z,216
2019-03-08T07:00:17.403Z,204
2019-03-08T07:01:27.328Z,224
2019-03-08T07:02:37.693Z,208
2019-03-08T07:03:47.513Z,192
2019-03-08T07:04:56.987Z,164
2019-03-08T07:06:06.721Z,252
2019-03-08T07:07:16.449Z,236
2019-03-08T07:08:26.187Z,252
2019-03-08T07:09:35.940Z,220
2019-03-08T07:10:45.908Z,220
2019-03-08T07:11:55.896Z,248
2019-03-08T07:13:10.658Z,264
2019-03-08T07:14:20.142Z,264
2019-03-08T07:15:29.625Z,252
2019-03-08T07:16:38.852Z,256
2019-03-08T07:17:48.345Z,264
2019-03-08T07:18:59.072Z,288
2019-03-08T07:20:08.800Z,328
2019-03-08T07:21:18.535Z,352
2019-03-08T07:22:28.302Z,436
2019-03-08T07:23:37.786Z,472
2019-03-08T07:24:47.255Z,444
2019-03-08T07:26:01.339Z,364
2019-03-08T07:27:11.331Z,240
2019-03-08T07:28:21.044Z,284
2019-03-08T07:29:30.551Z,236
2019-03-08T07:30:40.272Z,268
2019-03-08T07:31:50.026Z,192
2019-03-08T07:32:59.749Z,236
2019-03-08T07:34:10.935Z,264
2019-03-08T07:35:21.080Z,288
2019-03-08T07:36:31.811Z,308
2019-03-08T07:37:42.698Z,296
2019-03-08T07:38:52.686Z,300
2019-03-08T07:40:02.164Z,324
2019-03-08T07:41:11.912Z,364
2019-03-08T07:42:21.891Z,464
2019-03-08T07:43:31.147Z,500
2019-03-08T07:44:40.398Z,588
2019-03-08T07:45:51.554Z,712
2019-03-08T07:47:01.590Z,996
2019-03-08T07:48:11.316Z,1020
2019-03-08T07:49:22.351Z,1028
2019-03-08T07:50:32.835Z,1032
2019-03-08T07:51:43.698Z,1028
2019-03-08T07:52:54.349Z,964
2019-03-08T07:54:04.027Z,1008
2019-03-08T07:55:14.179Z,1056
2019-03-08T07:56:24.104Z,1076
2019-03-08T07:57:34.238Z,1076
2019-03-08T07:58:44.203Z,1064
2019-03-08T08:00:00.589Z,1100
2019-03-08T08:01:10.091Z,992
2019-03-08T08:02:20.084Z,980
2019-03-08T08:03:29.824Z,936
2019-03-08T08:04:39.318Z,940
2019-03-08T08:05:57.499Z,1024
2019-03-08T08:07:07.871Z,1296
2019-03-08T08:08:17.620Z,1424
2019-03-08T08:09:27.634Z,1320
2019-03-08T08:10:37.114Z,868
2019-03-08T08:11:46.899Z,660
2019-03-08T08:12:56.664Z,892
2019-03-08T08:14:06.419Z,784
2019-03-08T08:15:16.137Z,768
2019-03-08T08:16:26.130Z,820
2019-03-08T08:17:36.122Z,740
2019-03-08T08:18:46.166Z,732
2019-03-08T08:19:55.658Z,736
2019-03-08T08:21:06.109Z,780
2019-03-08T08:22:17.146Z,1032
2019-03-08T08:23:36.455Z,1392
2019-03-08T08:24:47.639Z,1500
2019-03-08T08:25:57.851Z,1780
2019-03-08T08:27:09.514Z,2136
2019-03-08T08:28:19.561Z,1884
2019-03-08T08:29:37.387Z,1456
2019-03-08T08:30:47.128Z,1404
2019-03-08T08:31:56.865Z,1208
2019-03-08T08:33:06.842Z,920
2019-03-08T08:34:16.592Z,1164
2019-03-08T08:35:26.595Z,1548
2019-03-08T08:36:36.347Z,1200
2019-03-08T08:37:46.083Z,1520
2019-03-08T08:38:56.062Z,2008
2019-03-08T08:40:06.039Z,1816
2019-03-08T08:41:15.518Z,2152
2019-03-08T08:42:25.245Z,1508
2019-03-08T08:43:34.985Z,1684
2019-03-08T08:44:44.488Z,1484
2019-03-08T08:45:54.477Z,1196
2019-03-08T08:47:04.218Z,2032
2019-03-08T08:48:15.075Z,1112
2019-03-08T08:49:25.168Z,2276
2019-03-08T08:50:35.660Z,1484
2019-03-08T08:51:45.265Z,2268
2019-03-08T08:52:54.504Z,2248
2019-03-08T08:54:04.251Z,1392
2019-03-08T08:55:13.728Z,1436
2019-03-08T08:56:23.724Z,960
2019-03-08T08:57:33.704Z,1268
2019-03-08T08:58:43.435Z,964
2019-03-08T08:59:53.417Z,1504
2019-03-08T09:01:04.503Z,2924
2019-03-08T09:02:14.481Z,2772
2019-03-08T09:03:24.239Z,2860
2019-03-08T09:04:33.975Z,2428
2019-03-08T09:05:43.696Z,2052
2019-03-08T09:06:53.679Z,1756
2019-03-08T09:08:03.181Z,1160
2019-03-08T09:09:12.905Z,1856
2019-03-08T09:10:22.909Z,1520
2019-03-08T09:11:32.875Z,1204
2019-03-08T09:12:53.491Z,1348
2019-03-08T09:14:03.710Z,1156
2019-03-08T09:15:13.487Z,1132
2019-03-08T09:16:23.206Z,940
2019-03-08T09:17:32.433Z,868
2019-03-08T09:18:42.158Z,1196
2019-03-08T09:19:51.896Z,1104
2019-03-08T09:21:01.130Z,884
2019-03-08T09:22:10.857Z,1080
2019-03-08T09:23:20.581Z,1408
2019-03-08T09:24:30.334Z,2068
2019-03-08T09:25:40.058Z,1300
2019-03-08T09:26:50.058Z,1200
2019-03-08T09:27:59.335Z,1420
2019-03-08T09:29:09.076Z,1756
2019-03-08T09:30:19.047Z,2004
2019-03-08T09:31:29.963Z,2036
2019-03-08T09:32:39.685Z,2064
2019-03-08T09:33:49.422Z,2160
2019-03-08T09:34:58.916Z,2148
2019-03-08T09:36:08.904Z,2024
2019-03-08T09:37:18.625Z,1624
2019-03-08T09:38:28.111Z,1380
2019-03-08T09:39:38.092Z,1164
2019-03-08T09:40:48.073Z,920
2019-03-08T09:41:57.806Z,764
2019-03-08T09:43:07.571Z,792
2019-03-08T09:44:17.553Z,824
2019-03-08T09:45:27.285Z,788
2019-03-08T09:46:36.781Z,788
2019-03-08T09:47:46.516Z,796
2019-03-08T09:48:56.019Z,848
2019-03-08T09:50:06.648Z,964
2019-03-08T09:51:16.139Z,1104
2019-03-08T09:52:26.132Z,1040
2019-03-08T09:53:35.890Z,1008
2019-03-08T09:54:45.606Z,1172
2019-03-08T09:55:55.346Z,1464
2019-03-08T09:57:05.347Z,1276
2019-03-08T09:58:15.066Z,1132
2019-03-08T09:59:25.060Z,1132
2019-03-08T10:00:34.756Z,1012
2019-03-08T10:01:44.728Z,1452
2019-03-08T10:02:54.454Z,2056
2019-03-08T10:04:04.435Z,2456
2019-03-08T10:05:14.426Z,2396
2019-03-08T10:06:24.155Z,2720
2019-03-08T10:07:34.141Z,2372
2019-03-08T10:08:44.203Z,2388
2019-03-08T10:09:54.843Z,1528
2019-03-08T10:11:05.196Z,1228
2019-03-08T10:12:15.604Z,1140
2019-03-08T10:13:26.051Z,944
2019-03-08T10:14:36.436Z,936
2019-03-08T10:15:46.232Z,836
2019-03-08T10:16:56.036Z,812
2019-03-08T10:18:05.543Z,872
2019-03-08T10:19:14.763Z,868
2019-03-08T10:20:24.230Z,868
2019-03-08T10:21:33.970Z,864
2019-03-08T10:22:43.701Z,872
2019-03-08T10:23:53.426Z,880
2019-03-08T10:25:03.169Z,896
2019-03-08T10:26:12.896Z,944
2019-03-08T10:27:22.148Z,932
2019-03-08T10:28:31.871Z,980
2019-03-08T10:29:41.893Z,964
2019-03-08T10:30:51.906Z,980
2019-03-08T10:32:01.883Z,1020
2019-03-08T10:33:12.666Z,980
2019-03-08T10:34:22.505Z,944
2019-03-08T10:35:31.739Z,916
2019-03-08T10:36:41.747Z,972
2019-03-08T10:37:51.481Z,1016
2019-03-08T10:39:01.459Z,1048
2019-03-08T10:40:12.898Z,1112
2019-03-08T10:41:22.889Z,1172
2019-03-08T10:42:32.857Z,1432
2019-03-08T10:43:42.832Z,1920
2019-03-08T10:44:52.316Z,2304
2019-03-08T10:46:02.035Z,2500
2019-03-08T10:47:11.765Z,2548
2019-03-08T10:48:21.774Z,2732
2019-03-08T10:49:31.767Z,2840
2019-03-08T10:50:41.241Z,2724
2019-03-08T10:51:51.229Z,2612
2019-03-08T10:53:00.474Z,2548
2019-03-08T10:54:10.474Z,2224
2019-03-08T10:55:20.459Z,1860
2019-03-08T10:56:30.439Z,1776
2019-03-08T10:57:40.159Z,1844
2019-03-08T10:58:49.890Z,1956
2019-03-08T10:59:59.630Z,1328
2019-03-08T11:01:09.632Z,1044
2019-03-08T11:02:19.352Z,992
2019-03-08T11:03:29.321Z,1008
2019-03-08T11:04:39.044Z,1024
2019-03-08T11:05:48.767Z,1504
2019-03-08T11:06:58.239Z,1948
2019-03-08T11:08:09.055Z,1880
2019-03-08T11:09:19.384Z,2348
2019-03-08T11:10:29.823Z,2880
2019-03-08T11:11:40.242Z,2120
2019-03-08T11:12:50.809Z,1588
2019-03-08T11:14:01.004Z,1400
2019-03-08T11:15:11.055Z,1616
2019-03-08T11:16:21.240Z,1648
2019-03-08T11:17:32.441Z,2032
2019-03-08T11:18:42.421Z,2740
2019-03-08T11:19:51.923Z,3452
2019-03-08T11:21:01.390Z,3228
2019-03-08T11:22:11.362Z,3252
2019-03-08T11:23:21.085Z,3108
2019-03-08T11:24:31.089Z,2660
2019-03-08T11:25:42.471Z,1524
2019-03-08T11:26:51.956Z,1460
2019-03-08T11:28:01.684Z,1532
2019-03-08T11:29:11.410Z,1328
2019-03-08T11:30:21.873Z,1456
2019-03-08T11:31:31.387Z,1572
2019-03-08T11:32:42.366Z,1536
2019-03-08T11:33:54.056Z,1444
2019-03-08T11:35:03.540Z,1624
2019-03-08T11:36:13.257Z,2508
2019-03-08T11:37:23.239Z,3444
2019-03-08T11:38:32.966Z,3508
2019-03-08T11:39:42.956Z,3232
2019-03-08T11:40:52.721Z,3336
2019-03-08T11:42:02.932Z,3208
2019-03-08T11:43:12.958Z,2432
2019-03-08T11:44:22.710Z,2328
2019-03-08T11:45:33.011Z,2644
2019-03-08T11:46:42.479Z,2576
2019-03-08T11:47:51.693Z,1908
2019-03-08T11:49:01.709Z,1532
2019-03-08T11:50:11.186Z,1792
2019-03-08T11:51:20.665Z,1480
2019-03-08T11:52:30.153Z,1308
2019-03-08T11:53:39.906Z,1456
2019-03-08T11:54:49.401Z,1724
2019-03-08T11:55:59.377Z,1664
2019-03-08T11:57:09.276Z,1836
2019-03-08T11:58:18.529Z,2156
2019-03-08T11:59:28.497Z,2500
2019-03-08T12:00:38.227Z,2472
2019-03-08T12:01:48.490Z,2468
2019-03-08T12:03:00.658Z,2536
2019-03-08T12:04:11.232Z,2932
2019-03-08T12:05:21.313Z,3748
2019-03-08T12:06:30.902Z,3392
2019-03-08T12:07:42.482Z,3224
2019-03-08T12:08:52.244Z,3104
2019-03-08T12:10:02.000Z,3168
2019-03-08T12:11:11.718Z,3204
2019-03-08T12:12:21.190Z,3692
2019-03-08T12:13:32.282Z,4040
2019-03-08T12:14:41.873Z,4164
2019-03-08T12:15:51.871Z,4144
2019-03-08T12:17:01.615Z,3868
2019-03-08T12:18:11.353Z,3736
2019-03-08T12:19:20.608Z,3652
2019-03-08T12:20:30.578Z,3648
2019-03-08T12:21:40.542Z,4148
2019-03-08T12:22:50.285Z,3672
